Time;durP1;ratioP1;P1;durP2;ratioP2;P2;SDS_P1;SDS_P2;PMS_P1;PMS_P2;Temp;Humidity;BMP_temperature;BMP_pressure;BME280_temperature;BME280_humidity;BME280_pressure;Samples;Min_cycle;Max_cycle;Signal;HPM_P1;HPM_P2
2024/01/19 00:04:13;;;;;;;76.80;37.30;;;;;;;-0.71;100.00;97927.07;273392;1265;22174;-90
2024/01/19 00:10:15;;;;;;;85.90;39.10;;;;;;;-0.71;100.00;97936.20;273565;1269;22397;-90
2024/01/19 00:16:18;;;;;;;96.00;42.30;;;;;;;-0.71;100.00;97955.19;273339;1269;22790;-90
2024/01/19 00:22:20;;;;;;;96.20;44.40;;;;;;;-0.69;100.00;97969.16;273337;1269;22220;-90
2024/01/19 00:28:22;;;;;;;95.40;43.10;;;;;;;-0.69;100.00;97982.17;273351;1269;23168;-90
2024/01/19 00:34:23;;;;;;;105.10;45.40;;;;;;;-0.71;100.00;98010.91;273443;1268;23014;-90
2024/01/19 00:40:25;;;;;;;100.90;45.20;;;;;;;-0.76;100.00;98026.95;273449;1257;23530;-91
2024/01/19 00:46:28;;;;;;;105.60;45.10;;;;;;;-0.75;100.00;98034.02;273293;1267;22412;-91
2024/01/19 00:52:30;;;;;;;109.30;47.90;;;;;;;-0.78;100.00;98041.98;273516;1261;23458;-90
2024/01/19 00:58:32;;;;;;;106.50;48.70;;;;;;;-0.78;100.00;98047.18;273445;1269;22239;-90
2024/01/19 01:04:34;;;;;;;113.30;49.70;;;;;;;-0.75;100.00;98057.14;273348;1269;22401;-90
2024/01/19 01:10:36;;;;;;;111.90;50.80;;;;;;;-0.73;100.00;98063.60;273389;1269;22437;-90
2024/01/19 01:16:38;;;;;;;129.00;54.50;;;;;;;-0.72;100.00;98058.98;273520;1269;22194;-90
2024/01/19 01:22:40;;;;;;;113.80;51.70;;;;;;;-0.69;100.00;98062.45;273640;1269;22982;-91
2024/01/19 01:28:42;;;;;;;112.90;47.30;;;;;;;-0.69;100.00;98085.22;273627;1269;22242;-90
2024/01/19 01:34:43;;;;;;;112.80;49.80;;;;;;;-0.74;100.00;98105.03;273533;1269;22245;-90
2024/01/19 01:40:46;;;;;;;102.40;47.60;;;;;;;-0.74;100.00;98117.30;273523;1269;22211;-90
2024/01/19 01:46:48;;;;;;;108.50;47.90;;;;;;;-0.78;100.00;98120.53;271014;1269;22664;-90
2024/01/19 01:52:51;;;;;;;91.70;39.20;;;;;;;-0.79;100.00;98119.62;273570;1269;22206;-90
2024/01/19 01:58:54;;;;;;;92.30;42.10;;;;;;;-0.78;100.00;98122.98;273597;1264;22456;-90
2024/01/19 02:04:56;;;;;;;90.90;41.70;;;;;;;-0.82;100.00;98120.07;273676;1269;23606;-90
2024/01/19 02:10:57;;;;;;;103.50;43.40;;;;;;;-0.83;100.00;98125.98;270856;1267;22584;-90
2024/01/19 02:17:00;;;;;;;97.40;43.80;;;;;;;-0.84;100.00;98138.80;270112;1269;22551;-90
2024/01/19 02:23:02;;;;;;;98.30;41.70;;;;;;;-0.86;100.00;98150.22;273325;1269;22282;-91
2024/01/19 02:29:04;;;;;;;86.90;38.50;;;;;;;-0.88;100.00;98156.36;273446;1269;23990;-91
2024/01/19 02:35:07;;;;;;;84.80;38.60;;;;;;;-0.90;100.00;98155.35;273058;1259;23578;-87
2024/01/19 02:41:08;;;;;;;83.30;36.20;;;;;;;-0.92;100.00;98158.02;272600;1269;22537;-87
2024/01/19 02:47:10;;;;;;;92.20;39.90;;;;;;;-0.91;100.00;98158.91;270807;1269;22551;-88
2024/01/19 02:53:12;;;;;;;84.60;38.70;;;;;;;-0.90;100.00;98173.61;272518;1268;22494;-88
2024/01/19 02:59:14;;;;;;;90.00;38.10;;;;;;;-0.90;100.00;98192.17;273728;1257;23350;-88
2024/01/19 03:05:16;;;;;;;95.50;40.40;;;;;;;-0.89;100.00;98198.99;273734;1272;22350;-88
2024/01/19 03:11:17;;;;;;;96.90;40.20;;;;;;;-0.89;100.00;98209.37;273603;1270;22213;-88
2024/01/19 03:17:19;;;;;;;110.00;45.30;;;;;;;-0.88;100.00;98221.38;273018;1269;23309;-89
2024/01/19 03:23:21;;;;;;;101.00;48.60;;;;;;;-0.93;100.00;98232.35;273614;1267;22200;-89
2024/01/19 03:29:23;;;;;;;107.10;47.80;;;;;;;-0.97;100.00;98247.21;273371;1267;22560;-89
2024/01/19 03:35:25;;;;;;;111.40;50.20;;;;;;;-0.94;100.00;98254.89;272317;1268;23255;-89
2024/01/19 03:41:28;;;;;;;119.20;51.60;;;;;;;-0.94;100.00;98255.73;271078;1269;27621;-88
2024/01/19 03:47:30;;;;;;;108.70;49.70;;;;;;;-0.94;100.00;98263.04;271020;1269;22586;-88
2024/01/19 03:53:36;;;;;;;114.80;50.10;;;;;;;-0.96;100.00;98268.29;273509;1269;22518;-89
2024/01/19 03:59:41;;;;;;;120.90;52.40;;;;;;;-0.98;100.00;98282.10;272354;1270;23368;-90
2024/01/19 04:05:43;;;;;;;67.30;31.30;;;;;;;-0.98;100.00;98308.88;273966;1272;22305;-88
2024/01/19 04:11:45;;;;;;;95.60;41.90;;;;;;;-1.04;100.00;98326.51;272638;1269;22569;-87
2024/01/19 04:17:47;;;;;;;93.60;38.20;;;;;;;-1.06;100.00;98328.55;273645;1270;22295;-88
2024/01/19 04:23:50;;;;;;;83.20;36.50;;;;;;;-1.13;100.00;98323.17;273620;1269;22381;-88
2024/01/19 04:29:52;;;;;;;57.80;25.00;;;;;;;-1.24;100.00;98323.29;273673;1268;23582;-88
2024/01/19 04:35:54;;;;;;;52.20;22.80;;;;;;;-1.45;100.00;98330.81;273733;1269;23055;-88
2024/01/19 04:41:55;;;;;;;48.10;21.10;;;;;;;-1.65;100.00;98367.23;273564;1269;22279;-88
2024/01/19 04:47:57;;;;;;;49.30;22.00;;;;;;;-1.72;100.00;98404.29;273092;1272;22219;-89
2024/01/19 04:53:59;;;;;;;61.30;23.80;;;;;;;-1.73;100.00;98411.04;273240;1269;22418;-88
2024/01/19 05:00:02;;;;;;;53.00;20.90;;;;;;;-1.75;100.00;98412.38;273705;1269;22567;-88
2024/01/19 05:06:04;;;;;;;49.80;21.60;;;;;;;-1.76;100.00;98425.11;273262;1269;22571;-87
2024/01/19 05:12:06;;;;;;;56.30;24.10;;;;;;;-1.75;100.00;98445.85;273785;1269;22200;-88
2024/01/19 05:18:08;;;;;;;60.80;24.70;;;;;;;-1.73;100.00;98451.80;273806;1268;22458;-88
2024/01/19 05:24:10;;;;;;;62.80;24.00;;;;;;;-1.73;100.00;98459.52;272742;1269;23769;-87
2024/01/19 05:30:13;;;;;;;61.70;25.50;;;;;;;-1.70;100.00;98464.82;271669;1269;22513;-88
2024/01/19 05:36:15;;;;;;;61.20;27.10;;;;;;;-1.68;100.00;98479.20;271132;1269;134107;-89
2024/01/19 05:42:17;;;;;;;62.10;25.20;;;;;;;-1.67;100.00;98494.05;270734;1270;22551;-88
2024/01/19 05:48:19;;;;;;;55.70;24.80;;;;;;;-1.71;100.00;98497.75;271178;1257;23303;-88
2024/01/19 05:54:21;;;;;;;74.10;27.90;;;;;;;-1.76;100.00;98495.48;272313;1272;22495;-88
2024/01/19 06:00:23;;;;;;;65.50;27.30;;;;;;;-1.77;100.00;98496.14;273752;1269;22458;-88
2024/01/19 06:06:25;;;;;;;62.90;24.70;;;;;;;-1.77;100.00;98504.18;273517;1273;22380;-88
2024/01/19 06:12:27;;;;;;;61.50;25.90;;;;;;;-1.79;100.00;98526.77;271751;1269;24212;-88
2024/01/19 06:18:29;;;;;;;58.50;24.80;;;;;;;-1.81;100.00;98539.83;270890;1269;22581;-88
2024/01/19 06:24:35;;;;;;;64.50;25.10;;;;;;;-1.85;100.00;98550.33;272954;1269;22384;-89
2024/01/19 06:30:36;;;;;;;54.20;24.00;;;;;;;-1.88;100.00;98558.39;271972;1270;22522;-88
2024/01/19 06:36:38;;;;;;;70.10;27.70;;;;;;;-1.89;100.00;98565.59;272698;1267;23781;-88
2024/01/19 06:42:45;;;;;;;65.30;27.00;;;;;;;-1.91;100.00;98568.39;273570;1267;22401;-88
2024/01/19 06:48:49;;;;;;;68.20;30.10;;;;;;;-1.92;100.00;98571.74;273878;1265;22328;-88
2024/01/19 06:54:54;;;;;;;65.40;25.60;;;;;;;-1.93;100.00;98578.10;273638;1266;22429;-88
2024/01/19 07:01:06;;;;;;;44.20;19.80;;;;;;;-1.96;100.00;98581.88;273681;1270;22352;-88
2024/01/19 07:07:09;;;;;;;57.40;26.20;;;;;;;-1.99;100.00;98581.34;273794;1269;22466;-88
2024/01/19 07:13:16;;;;;;;55.90;24.10;;;;;;;-1.99;100.00;98589.82;273474;1266;22438;-87
2024/01/19 07:19:18;;;;;;;54.30;23.10;;;;;;;-2.01;100.00;98584.11;273547;1268;22401;-88
2024/01/19 07:25:20;;;;;;;44.80;20.20;;;;;;;-2.00;100.00;98599.60;273143;1268;23069;-88
2024/01/19 07:31:22;;;;;;;47.00;22.80;;;;;;;-1.96;100.00;98604.23;273121;1269;23975;-88
2024/01/19 07:37:24;;;;;;;57.00;22.40;;;;;;;-1.92;100.00;98604.20;272541;1269;22455;-87
2024/01/19 07:43:33;;;;;;;53.30;22.90;;;;;;;-1.84;100.00;98597.69;273128;1269;22434;-88
2024/01/19 07:49:45;;;;;;;53.90;24.50;;;;;;;-1.86;100.00;98605.83;272837;1270;23173;-87
2024/01/19 07:55:47;;;;;;;52.10;24.30;;;;;;;-1.84;100.00;98607.83;271354;1268;23750;-87
2024/01/19 08:01:48;;;;;;;52.20;23.20;;;;;;;-1.82;100.00;98623.06;271979;1272;22435;-87
2024/01/19 08:07:52;;;;;;;47.10;22.30;;;;;;;-1.79;100.00;98632.23;272782;1270;23929;-88
2024/01/19 08:13:54;;;;;;;49.80;23.90;;;;;;;-1.81;100.00;98630.01;270576;1270;23273;-88
2024/01/19 08:19:56;;;;;;;57.10;25.80;;;;;;;-1.84;100.00;98640.48;271573;1269;22571;-88
2024/01/19 08:25:58;;;;;;;56.10;25.20;;;;;;;-1.83;100.00;98645.67;271289;1269;22649;-87
2024/01/19 08:32:01;;;;;;;53.70;25.40;;;;;;;-1.83;100.00;98659.31;273777;1268;22276;-88
2024/01/19 08:38:04;;;;;;;55.60;23.70;;;;;;;-1.84;100.00;98677.90;272627;1267;22562;-88
2024/01/19 08:44:06;;;;;;;66.00;26.10;;;;;;;-1.85;100.00;98701.31;273389;1270;22366;-87
2024/01/19 08:50:22;;;;;;;60.50;27.40;;;;;;;-1.80;100.00;98728.94;273574;1273;23382;-87
2024/01/19 08:56:25;;;;;;;71.20;26.90;;;;;;;-1.77;100.00;98747.34;273106;1272;22445;-87
2024/01/19 09:02:28;;;;;;;58.40;23.90;;;;;;;-1.75;100.00;98768.08;273480;1270;22222;-88
2024/01/19 09:08:30;;;;;;;53.30;22.10;;;;;;;-1.73;100.00;98787.58;273677;1270;22421;-88
2024/01/19 09:14:33;;;;;;;50.90;23.20;;;;;;;-1.71;100.00;98806.32;273685;1264;22201;-88
2024/01/19 09:20:36;;;;;;;64.80;26.20;;;;;;;-1.68;100.00;98812.05;273649;1269;22209;-88
2024/01/19 09:26:39;;;;;;;61.20;25.90;;;;;;;-1.71;100.00;98813.14;273775;1270;23388;-88
2024/01/19 09:32:41;;;;;;;69.20;27.80;;;;;;;-1.73;100.00;98823.05;272698;1270;22564;-88
2024/01/19 09:38:43;;;;;;;66.30;25.80;;;;;;;-1.70;100.00;98834.90;273527;1270;23019;-88
2024/01/19 09:44:54;;;;;;;64.30;24.90;;;;;;;-1.65;100.00;98853.85;273605;1270;22343;-88
2024/01/19 09:50:56;;;;;;;51.90;23.00;;;;;;;-1.57;100.00;98863.58;272841;1270;23292;-88
2024/01/19 09:57:03;;;;;;;51.60;22.70;;;;;;;-1.56;100.00;98862.75;272612;1264;23642;-88
2024/01/19 10:03:09;;;;;;;49.60;22.30;;;;;;;-1.49;100.00;98858.21;270915;1273;22564;-88
2024/01/19 10:09:12;;;;;;;48.60;22.10;;;;;;;-1.46;100.00;98847.62;272115;1270;22955;-87
2024/01/19 10:15:15;;;;;;;45.50;20.40;;;;;;;-1.43;100.00;98849.50;272024;1270;22258;-88
2024/01/19 10:21:27;;;;;;;48.80;21.20;;;;;;;-1.36;100.00;98849.84;273629;1270;22849;-88
2024/01/19 10:27:51;;;;;;;55.80;26.00;;;;;;;-1.26;100.00;98860.58;273720;1269;22280;-87
2024/01/19 10:34:01;;;;;;;50.40;24.80;;;;;;;-1.08;100.00;98862.64;273652;1252;22296;-88
2024/01/19 10:40:16;;;;;;;44.30;22.30;;;;;;;-1.00;100.00;98862.69;273479;1270;23185;-88
2024/01/19 10:46:23;;;;;;;39.30;20.20;;;;;;;-0.99;100.00;98857.68;273438;1269;22479;-88
2024/01/19 10:52:33;;;;;;;40.40;21.30;;;;;;;-0.90;100.00;98862.63;272289;1270;22537;-88
2024/01/19 10:58:36;;;;;;;45.90;20.20;;;;;;;-0.86;100.00;98862.25;271874;1269;22564;-87
2024/01/19 11:04:39;;;;;;;44.80;19.50;;;;;;;-0.89;100.00;98858.36;271333;1270;22542;-87
2024/01/19 11:10:46;;;;;;;46.70;22.30;;;;;;;-0.94;100.00;98866.73;272738;1269;22194;-87
2024/01/19 11:16:53;;;;;;;44.80;21.00;;;;;;;-0.91;100.00;98880.48;272664;1269;23607;-87
2024/01/19 11:22:56;;;;;;;51.60;24.90;;;;;;;-0.86;100.00;98897.89;272324;1269;22615;-87
2024/01/19 11:29:01;;;;;;;45.90;21.50;;;;;;;-0.83;100.00;98896.48;270916;1270;24172;-87
2024/01/19 11:35:04;;;;;;;54.60;26.20;;;;;;;-0.82;100.00;98894.92;272872;1266;22435;-87
2024/01/19 11:41:06;;;;;;;46.90;21.00;;;;;;;-0.76;100.00;98888.42;273432;1268;22389;-87
2024/01/19 11:47:28;;;;;;;41.60;19.80;;;;;;;-0.77;100.00;98884.80;273767;1270;22883;-88
2024/01/19 11:53:56;;;;;;;47.60;23.90;;;;;;;-0.69;100.00;98882.71;273295;1267;22441;-87
2024/01/19 12:00:03;;;;;;;47.40;24.10;;;;;;;-0.63;100.00;98885.91;272413;1264;23288;-87
2024/01/19 12:06:07;;;;;;;46.90;24.70;;;;;;;-0.65;100.00;98881.81;271228;1269;22521;-86
2024/01/19 12:12:09;;;;;;;49.40;23.00;;;;;;;-0.66;100.00;98882.38;272767;1269;22870;-88
2024/01/19 12:18:11;;;;;;;49.10;23.00;;;;;;;-0.69;100.00;98889.49;273602;1268;22200;-87
2024/01/19 12:24:18;;;;;;;52.10;24.30;;;;;;;-0.68;100.00;98901.90;273584;1267;22434;-86
2024/01/19 12:30:20;;;;;;;50.40;25.70;;;;;;;-0.68;100.00;98913.66;273657;1269;22408;-88
2024/01/19 12:36:25;;;;;;;53.80;26.30;;;;;;;-0.73;100.00;98913.56;273672;1269;22192;-87
2024/01/19 12:42:35;;;;;;;50.80;26.30;;;;;;;-0.71;100.00;98920.88;273589;1269;22472;-87
2024/01/19 12:48:36;;;;;;;56.20;26.70;;;;;;;-0.66;100.00;98931.90;273162;1267;22280;-87
2024/01/19 12:54:44;;;;;;;50.70;24.30;;;;;;;-0.67;100.00;98945.11;273602;1269;22497;-87
2024/01/19 13:00:47;;;;;;;48.60;24.60;;;;;;;-0.70;100.00;98950.01;273748;1269;23686;-88
2024/01/19 13:06:51;;;;;;;50.60;24.30;;;;;;;-0.73;100.00;98955.29;273813;1269;22361;-87
2024/01/19 13:13:18;;;;;;;44.70;23.90;;;;;;;-0.73;100.00;98960.33;273517;1267;23169;-87
2024/01/19 13:19:23;;;;;;;55.90;26.60;;;;;;;-0.75;100.00;98965.27;272285;1269;22558;-88
2024/01/19 13:25:25;;;;;;;46.40;23.50;;;;;;;-0.82;100.00;98974.23;273366;1269;22488;-88
2024/01/19 13:31:26;;;;;;;50.30;23.70;;;;;;;-0.88;100.00;98980.44;273442;1270;22468;-88
2024/01/19 13:37:28;;;;;;;62.00;26.80;;;;;;;-0.96;100.00;98989.85;272182;1269;22202;-87
2024/01/19 13:43:30;;;;;;;58.50;25.30;;;;;;;-1.05;100.00;98987.18;272217;1269;22669;-87
2024/01/19 13:49:32;;;;;;;54.50;26.90;;;;;;;-1.15;100.00;98990.60;270637;1269;22543;-88
2024/01/19 13:55:40;;;;;;;54.00;26.20;;;;;;;-1.20;100.00;98992.65;271317;1269;22528;-87
2024/01/19 14:01:43;;;;;;;54.70;25.90;;;;;;;-1.24;100.00;98992.84;273039;1269;22290;-87
2024/01/19 14:07:44;;;;;;;45.60;21.20;;;;;;;-1.29;100.00;99000.30;273621;1269;22433;-87
2024/01/19 14:13:48;;;;;;;51.70;25.60;;;;;;;-1.34;100.00;99004.08;273644;1271;23584;-87
2024/01/19 14:19:49;;;;;;;56.40;26.60;;;;;;;-1.35;100.00;99010.08;272073;1262;22307;-86
2024/01/19 14:25:52;;;;;;;58.10;27.60;;;;;;;-1.39;100.00;99019.44;273682;1268;22200;-87
2024/01/19 14:32:02;;;;;;;59.90;26.80;;;;;;;-1.39;100.00;99021.27;273138;1269;22609;-86
2024/01/19 14:38:29;;;;;;;60.80;27.50;;;;;;;-1.38;100.00;99016.05;272559;1269;22428;-88
2024/01/19 14:44:31;;;;;;;80.30;35.90;;;;;;;-1.42;100.00;99017.34;273667;1269;22271;-87
2024/01/19 14:50:33;;;;;;;77.60;34.60;;;;;;;-1.47;100.00;99023.51;273781;1269;22384;-87
2024/01/19 14:56:35;;;;;;;79.60;35.80;;;;;;;-1.56;100.00;99029.83;273487;1269;23600;-86
2024/01/19 15:02:37;;;;;;;81.60;37.40;;;;;;;-1.68;100.00;99033.41;273669;1269;22423;-86
2024/01/19 15:08:39;;;;;;;88.80;41.00;;;;;;;-1.79;100.00;99040.90;273613;1268;22318;-87
2024/01/19 15:14:40;;;;;;;114.50;48.70;;;;;;;-1.88;100.00;99039.34;273554;1269;23428;-85
2024/01/19 15:20:42;;;;;;;100.50;45.90;;;;;;;-1.96;100.00;99047.08;273780;1258;23827;-86
2024/01/19 15:26:45;;;;;;;87.70;39.30;;;;;;;-2.05;100.00;99056.98;273858;1268;22176;-86
2024/01/19 15:32:46;;;;;;;82.40;38.70;;;;;;;-2.23;100.00;99061.70;273717;1269;22515;-86
2024/01/19 15:38:48;;;;;;;78.50;38.10;;;;;;;-2.35;100.00;99071.85;273672;1268;22302;-86
2024/01/19 15:44:50;;;;;;;85.80;35.40;;;;;;;-2.48;100.00;99078.30;273623;1268;22276;-86
2024/01/19 15:50:51;;;;;;;99.40;40.60;;;;;;;-2.64;100.00;99081.08;273515;1269;22388;-85
2024/01/19 15:56:53;;;;;;;84.70;37.20;;;;;;;-2.70;100.00;99082.64;273500;1269;22291;-86
2024/01/19 16:02:55;;;;;;;92.80;39.10;;;;;;;-2.76;100.00;99088.30;273525;1269;22386;-86
2024/01/19 16:09:17;;;;;;;98.60;42.00;;;;;;;-2.82;100.00;99094.52;273868;1272;22204;-85
2024/01/19 16:15:19;;;;;;;89.50;37.20;;;;;;;-2.88;100.00;99102.25;273583;1267;23092;-85
2024/01/19 16:21:24;;;;;;;100.30;41.00;;;;;;;-2.98;100.00;99114.68;273750;1269;22778;-86
2024/01/19 16:27:28;;;;;;;80.70;36.10;;;;;;;-3.04;100.00;99123.11;273583;1269;22394;-85
2024/01/19 16:34:10;;;;;;;91.10;38.10;;;;;;;-3.09;100.00;99126.00;272565;1270;22251;-85
2024/01/19 16:40:34;;;;;;;88.20;37.50;;;;;;;-3.12;100.00;99135.92;274003;1265;23043;-85
2024/01/19 16:47:46;;;;;;;106.10;41.50;;;;;;;-3.15;100.00;99143.29;273904;1269;22401;-85
2024/01/19 16:55:16;;;;;;;105.80;43.40;;;;;;;-3.28;100.00;99160.71;273892;1269;23260;-85
2024/01/19 17:02:53;;;;;;;117.90;46.10;;;;;;;-3.38;100.00;99177.44;273508;1269;23855;-85
2024/01/19 17:10:37;;;;;;;119.50;49.60;;;;;;;-3.33;100.00;99188.60;273819;1272;22321;-86
2024/01/19 17:17:41;;;;;;;141.20;51.90;;;;;;;-3.33;100.00;99204.17;273533;1268;22533;-86
2024/01/19 17:25:11;;;;;;;118.60;47.20;;;;;;;-3.26;100.00;99210.39;273809;1269;22355;-84
2024/01/19 17:32:31;;;;;;;144.20;54.10;;;;;;;-3.21;100.00;99221.54;273650;1275;22874;-85
2024/01/19 17:39:50;;;;;;;142.20;51.80;;;;;;;-3.19;100.00;99225.69;269599;1269;5417734;-84
2024/01/19 17:46:36;;;;;;;122.30;44.80;;;;;;;-3.08;100.00;99235.14;273856;1275;22275;-85
2024/01/19 17:54:22;;;;;;;122.50;48.80;;;;;;;-2.98;100.00;99242.38;273747;1269;22431;-84
2024/01/19 18:01:49;;;;;;;122.80;50.00;;;;;;;-2.89;100.00;99251.84;273817;1276;22356;-85
2024/01/19 18:08:59;;;;;;;121.80;51.40;;;;;;;-2.83;100.00;99266.52;273846;1272;23629;-84
2024/01/19 18:15:42;;;;;;;119.10;49.50;;;;;;;-2.76;100.00;99281.48;273594;1264;22911;-85
2024/01/19 18:22:25;;;;;;;142.10;56.10;;;;;;;-2.67;100.00;99292.18;273812;1264;22219;-85
2024/01/19 18:30:15;;;;;;;145.20;53.20;;;;;;;-2.59;100.00;99307.11;273737;1275;23189;-86
2024/01/19 18:37:43;;;;;;;119.60;51.20;;;;;;;-2.51;100.00;99321.99;273774;1269;22303;-85
2024/01/19 18:45:25;;;;;;;112.00;45.40;;;;;;;-2.46;100.00;99333.04;273551;1275;22233;-84
2024/01/19 18:52:20;;;;;;;119.70;47.50;;;;;;;-2.41;100.00;99353.27;273669;1269;22443;-85
2024/01/19 18:59:38;;;;;;;107.60;42.10;;;;;;;-2.37;100.00;99367.71;271828;1269;25493;-84
2024/01/19 19:06:26;;;;;;;108.30;42.80;;;;;;;-2.33;100.00;99376.64;271836;1269;22205;-83
2024/01/19 19:13:59;;;;;;;56.50;25.30;;;;;;;-2.26;100.00;99377.95;273479;1268;22002;-83
2024/01/19 19:20:24;;;;;;;;;;;;;;;-2.17;100.00;99383.72;272296;1272;22520;-84
2024/01/19 19:26:26;;;;;;;74.10;27.40;;;;;;;-2.07;100.00;99396.23;272972;1269;22197;-86
2024/01/19 19:32:49;;;;;;;55.00;23.10;;;;;;;-1.98;100.00;99412.47;273716;1269;22212;-84
2024/01/19 19:39:34;;;;;;;48.80;19.60;;;;;;;-1.88;100.00;99428.82;273723;1270;23367;-84
2024/01/19 19:46:16;;;;;;;45.00;19.60;;;;;;;-1.81;100.00;99439.55;273470;1275;22405;-85
2024/01/19 19:53:40;;;;;;;48.30;20.20;;;;;;;-1.75;100.00;99441.80;273019;1269;22273;-85
2024/01/19 20:00:22;;;;;;;41.10;16.90;;;;;;;-1.72;100.00;99443.38;273095;1270;22399;-86
2024/01/19 20:06:51;;;;;;;43.60;18.00;;;;;;;-1.68;100.00;99447.58;273919;1254;23921;-85
2024/01/19 20:14:22;;;;;;;41.10;18.10;;;;;;;-1.66;100.00;99456.69;273695;1275;22982;-85
2024/01/19 20:21:30;;;;;;;37.90;16.80;;;;;;;-1.63;100.00;99470.50;272905;1276;23522;-85
2024/01/19 20:28:52;;;;;;;44.40;17.00;;;;;;;-1.61;100.00;99478.10;272885;1272;23528;-84
2024/01/19 20:35:45;;;;;;;48.20;18.40;;;;;;;-1.60;100.00;99482.12;272904;1272;22391;-84
2024/01/19 20:43:10;;;;;;;47.10;18.90;;;;;;;-1.58;100.00;99486.14;272704;1272;22232;-85
2024/01/19 20:50:33;;;;;;;42.80;18.70;;;;;;;-1.57;100.00;99493.54;273122;1276;22415;-84
2024/01/19 20:58:04;;;;;;;49.70;19.20;;;;;;;-1.58;100.00;99498.96;273627;1269;23034;-82
2024/01/19 21:05:07;;;;;;;42.80;19.40;;;;;;;-1.57;100.00;99507.77;273625;1269;22201;-82
2024/01/19 21:11:31;;;;;;;43.00;18.60;;;;;;;-1.57;100.00;99512.76;273808;1269;22178;-82
2024/01/19 21:18:14;;;;;;;45.20;19.70;;;;;;;-1.57;100.00;99514.53;273612;1269;22488;-84
2024/01/19 21:25:25;;;;;;;52.50;19.10;;;;;;;-1.55;100.00;99516.81;273685;1272;23404;-82
2024/01/19 21:32:01;;;;;;;35.50;19.10;;;;;;;-1.53;100.00;99529.74;273160;1271;22581;-82
2024/01/19 21:38:36;;;;;;;45.20;17.50;;;;;;;-1.54;100.00;99541.03;272736;1269;22368;-83
2024/01/19 21:44:41;;;;;;;46.20;18.20;;;;;;;-1.55;100.00;99549.64;273634;1269;22237;-83
2024/01/19 21:50:43;;;;;;;37.80;17.70;;;;;;;-1.54;100.00;99557.19;273808;1269;23260;-83
2024/01/19 21:57:05;;;;;;;40.20;18.90;;;;;;;-1.52;100.00;99558.46;273667;1272;22193;-84
2024/01/19 22:04:08;;;;;;;41.10;18.20;;;;;;;-1.51;100.00;99562.54;273726;1269;22240;-83
2024/01/19 22:11:32;;;;;;;47.10;18.10;;;;;;;-1.52;100.00;99572.70;273736;1270;22259;-83
2024/01/19 22:18:05;;;;;;;39.90;18.40;;;;;;;-1.52;100.00;99583.81;273514;1272;22206;-83
2024/01/19 22:24:33;;;;;;;47.70;19.10;;;;;;;-1.53;100.00;99590.48;273762;1269;23256;-83
2024/01/19 22:31:38;;;;;;;39.50;18.80;;;;;;;-1.60;100.00;99607.17;273853;1275;22293;-84
2024/01/19 22:38:42;;;;;;;48.10;19.10;;;;;;;-1.64;100.00;99618.27;273736;1272;22613;-84
2024/01/19 22:45:50;;;;;;;50.30;20.20;;;;;;;-1.62;100.00;99617.35;273608;1270;22294;-83
2024/01/19 22:52:50;;;;;;;48.00;20.90;;;;;;;-1.62;100.00;99622.77;272147;1269;22559;-84
2024/01/19 22:59:33;;;;;;;39.90;19.20;;;;;;;-1.63;100.00;99630.29;270757;1270;23373;-83
2024/01/19 23:06:56;;;;;;;50.80;19.90;;;;;;;-1.64;100.00;99623.38;271019;1269;22421;-83
2024/01/19 23:13:13;;;;;;;41.50;18.60;;;;;;;-1.67;100.00;99622.54;272285;1269;22580;-84
2024/01/19 23:20:03;;;;;;;40.90;15.90;;;;;;;-1.70;100.00;99622.55;270932;1257;24252;-82
2024/01/19 23:26:45;;;;;;;52.00;22.40;;;;;;;-1.75;100.00;99621.08;271506;1269;22481;-83
2024/01/19 23:33:27;;;;;;;37.40;16.90;;;;;;;-1.76;100.00;99618.73;271018;1272;22606;-83
2024/01/19 23:40:53;;;;;;;48.10;18.60;;;;;;;-1.74;100.00;99630.16;272487;1269;23242;-84
2024/01/19 23:48:15;;;;;;;38.60;17.40;;;;;;;-1.72;100.00;99645.55;273711;1275;23330;-84
2024/01/19 23:55:32;;;;;;;30.00;14.80;;;;;;;-1.69;100.00;99648.58;273192;1279;22278;-84
